sensor_id;sensor_type;location;lat;lon;timestamp;P1;durP1;ratioP1;P2;durP2;ratioP2
57233;SDS011;43090;52.604;13.318;2022-10-19T00:01:21;19.00;;;3.70;;
57233;SDS011;43090;52.604;13.318;2022-10-19T00:03:50;18.52;;;2.72;;
57233;SDS011;43090;52.604;13.318;2022-10-19T00:06:23;20.25;;;3.83;;
57233;SDS011;43090;52.604;13.318;2022-10-19T00:08:52;14.35;;;3.40;;
57233;SDS011;43090;52.604;13.318;2022-10-19T00:11:20;15.85;;;2.80;;
57233;SDS011;43090;52.604;13.318;2022-10-19T00:13:49;18.98;;;3.80;;
57233;SDS011;43090;52.604;13.318;2022-10-19T00:16:16;13.77;;;2.35;;
57233;SDS011;43090;52.604;13.318;2022-10-19T00:18:43;12.80;;;3.35;;
57233;SDS011;43090;52.604;13.318;2022-10-19T00:21:11;9.85;;;2.50;;
57233;SDS011;43090;52.604;13.318;2022-10-19T00:23:39;10.48;;;2.53;;
57233;SDS011;43090;52.604;13.318;2022-10-19T00:26:09;18.30;;;4.07;;
57233;SDS011;43090;52.604;13.318;2022-10-19T00:28:37;21.23;;;3.00;;
57233;SDS011;43090;52.604;13.318;2022-10-19T00:35:58;17.60;;;2.38;;
57233;SDS011;43090;52.604;13.318;2022-10-19T00:38:29;11.10;;;2.33;;
57233;SDS011;43090;52.604;13.318;2022-10-19T00:40:56;13.57;;;2.92;;
57233;SDS011;43090;52.604;13.318;2022-10-19T00:43:24;13.15;;;2.42;;
57233;SDS011;43090;52.604;13.318;2022-10-19T00:45:52;18.17;;;2.95;;
57233;SDS011;43090;52.604;13.318;2022-10-19T00:48:23;17.02;;;2.75;;
57233;SDS011;43090;52.604;13.318;2022-10-19T00:50:53;15.63;;;2.25;;
57233;SDS011;43090;52.604;13.318;2022-10-19T00:53:25;15.43;;;2.40;;
57233;SDS011;43090;52.604;13.318;2022-10-19T00:55:54;10.93;;;2.10;;
57233;SDS011;43090;52.604;13.318;2022-10-19T00:58:22;12.73;;;2.30;;
57233;SDS011;43090;52.604;13.318;2022-10-19T01:00:49;6.30;;;1.85;;
57233;SDS011;43090;52.604;13.318;2022-10-19T01:05:45;9.93;;;1.92;;
57233;SDS011;43090;52.604;13.318;2022-10-19T01:08:12;10.75;;;2.90;;
57233;SDS011;43090;52.604;13.318;2022-10-19T01:10:47;10.52;;;1.88;;
57233;SDS011;43090;52.604;13.318;2022-10-19T01:13:44;17.00;;;2.20;;
57233;SDS011;43090;52.604;13.318;2022-10-19T01:16:24;10.35;;;1.85;;
57233;SDS011;43090;52.604;13.318;2022-10-19T01:19:14;14.77;;;1.88;;
57233;SDS011;43090;52.604;13.318;2022-10-19T01:25:07;7.43;;;2.50;;
57233;SDS011;43090;52.604;13.318;2022-10-19T01:27:47;6.97;;;1.45;;
57233;SDS011;43090;52.604;13.318;2022-10-19T01:33:15;10.50;;;2.00;;
57233;SDS011;43090;52.604;13.318;2022-10-19T01:38:51;8.35;;;1.50;;
57233;SDS011;43090;52.604;13.318;2022-10-19T01:46:53;4.43;;;1.20;;
57233;SDS011;43090;52.604;13.318;2022-10-19T01:52:05;11.55;;;1.48;;
57233;SDS011;43090;52.604;13.318;2022-10-19T01:54:37;9.68;;;1.60;;
57233;SDS011;43090;52.604;13.318;2022-10-19T01:57:08;8.13;;;1.50;;
57233;SDS011;43090;52.604;13.318;2022-10-19T01:59:38;7.97;;;1.63;;
57233;SDS011;43090;52.604;13.318;2022-10-19T02:02:07;21.00;;;2.13;;
57233;SDS011;43090;52.604;13.318;2022-10-19T02:04:35;9.38;;;1.75;;
57233;SDS011;43090;52.604;13.318;2022-10-19T02:07:03;7.63;;;1.15;;
57233;SDS011;43090;52.604;13.318;2022-10-19T02:09:32;8.77;;;1.52;;
57233;SDS011;43090;52.604;13.318;2022-10-19T02:11:59;6.38;;;1.23;;
57233;SDS011;43090;52.604;13.318;2022-10-19T02:14:31;13.02;;;2.10;;
57233;SDS011;43090;52.604;13.318;2022-10-19T02:17:02;9.43;;;1.80;;
57233;SDS011;43090;52.604;13.318;2022-10-19T02:19:59;8.07;;;1.50;;
57233;SDS011;43090;52.604;13.318;2022-10-19T02:22:26;11.00;;;1.40;;
57233;SDS011;43090;52.604;13.318;2022-10-19T02:24:53;8.77;;;1.75;;
57233;SDS011;43090;52.604;13.318;2022-10-19T02:27:20;6.20;;;1.50;;
57233;SDS011;43090;52.604;13.318;2022-10-19T02:32:13;6.55;;;1.92;;
57233;SDS011;43090;52.604;13.318;2022-10-19T02:34:40;6.05;;;1.20;;
57233;SDS011;43090;52.604;13.318;2022-10-19T02:37:07;11.05;;;1.70;;
57233;SDS011;43090;52.604;13.318;2022-10-19T02:39:34;7.45;;;1.45;;
57233;SDS011;43090;52.604;13.318;2022-10-19T02:42:11;8.77;;;1.40;;
57233;SDS011;43090;52.604;13.318;2022-10-19T02:44:46;7.30;;;1.60;;
57233;SDS011;43090;52.604;13.318;2022-10-19T02:47:18;12.57;;;1.80;;
57233;SDS011;43090;52.604;13.318;2022-10-19T02:49:49;7.53;;;1.30;;
57233;SDS011;43090;52.604;13.318;2022-10-19T02:52:17;8.52;;;2.08;;
57233;SDS011;43090;52.604;13.318;2022-10-19T02:54:44;14.50;;;1.58;;
57233;SDS011;43090;52.604;13.318;2022-10-19T02:57:14;12.45;;;1.50;;
57233;SDS011;43090;52.604;13.318;2022-10-19T02:59:45;7.82;;;1.48;;
57233;SDS011;43090;52.604;13.318;2022-10-19T03:02:12;10.40;;;2.00;;
57233;SDS011;43090;52.604;13.318;2022-10-19T03:04:40;21.85;;;2.83;;
57233;SDS011;43090;52.604;13.318;2022-10-19T03:07:07;11.85;;;2.05;;
57233;SDS011;43090;52.604;13.318;2022-10-19T03:09:35;6.20;;;1.40;;
57233;SDS011;43090;52.604;13.318;2022-10-19T03:12:02;7.55;;;1.95;;
57233;SDS011;43090;52.604;13.318;2022-10-19T03:14:31;6.97;;;1.55;;
57233;SDS011;43090;52.604;13.318;2022-10-19T03:19:45;13.00;;;2.30;;
57233;SDS011;43090;52.604;13.318;2022-10-19T03:22:12;8.45;;;1.67;;
57233;SDS011;43090;52.604;13.318;2022-10-19T03:24:40;11.13;;;1.92;;
57233;SDS011;43090;52.604;13.318;2022-10-19T03:27:06;6.97;;;1.58;;
57233;SDS011;43090;52.604;13.318;2022-10-19T03:33:16;6.40;;;1.40;;
57233;SDS011;43090;52.604;13.318;2022-10-19T03:36:11;10.52;;;2.03;;
57233;SDS011;43090;52.604;13.318;2022-10-19T03:38:42;7.82;;;2.03;;
57233;SDS011;43090;52.604;13.318;2022-10-19T03:41:17;5.07;;;1.42;;
57233;SDS011;43090;52.604;13.318;2022-10-19T03:43:48;14.98;;;2.15;;
57233;SDS011;43090;52.604;13.318;2022-10-19T03:46:25;13.27;;;1.63;;
57233;SDS011;43090;52.604;13.318;2022-10-19T03:49:18;5.15;;;1.48;;
57233;SDS011;43090;52.604;13.318;2022-10-19T03:51:45;5.45;;;0.98;;
57233;SDS011;43090;52.604;13.318;2022-10-19T03:54:13;7.30;;;0.75;;
57233;SDS011;43090;52.604;13.318;2022-10-19T03:56:41;9.75;;;1.10;;
57233;SDS011;43090;52.604;13.318;2022-10-19T03:59:09;5.20;;;0.90;;
57233;SDS011;43090;52.604;13.318;2022-10-19T04:01:42;5.75;;;1.08;;
57233;SDS011;43090;52.604;13.318;2022-10-19T04:04:13;5.75;;;1.05;;
57233;SDS011;43090;52.604;13.318;2022-10-19T04:06:42;3.63;;;0.77;;
57233;SDS011;43090;52.604;13.318;2022-10-19T04:09:12;6.82;;;0.90;;
57233;SDS011;43090;52.604;13.318;2022-10-19T04:11:42;3.45;;;0.80;;
57233;SDS011;43090;52.604;13.318;2022-10-19T04:14:17;6.30;;;0.90;;
57233;SDS011;43090;52.604;13.318;2022-10-19T04:16:58;4.10;;;1.02;;
57233;SDS011;43090;52.604;13.318;2022-10-19T04:19:25;4.32;;;0.70;;
57233;SDS011;43090;52.604;13.318;2022-10-19T04:21:51;3.58;;;0.77;;
57233;SDS011;43090;52.604;13.318;2022-10-19T04:24:18;2.30;;;0.85;;
57233;SDS011;43090;52.604;13.318;2022-10-19T04:26:48;6.05;;;1.02;;
57233;SDS011;43090;52.604;13.318;2022-10-19T04:29:17;5.20;;;1.20;;
57233;SDS011;43090;52.604;13.318;2022-10-19T04:31:49;10.88;;;0.82;;
57233;SDS011;43090;52.604;13.318;2022-10-19T04:34:17;6.30;;;1.27;;
57233;SDS011;43090;52.604;13.318;2022-10-19T04:36:44;8.75;;;1.45;;
57233;SDS011;43090;52.604;13.318;2022-10-19T04:39:14;11.52;;;0.93;;
57233;SDS011;43090;52.604;13.318;2022-10-19T04:41:49;5.90;;;0.93;;
57233;SDS011;43090;52.604;13.318;2022-10-19T04:44:22;3.03;;;0.70;;
57233;SDS011;43090;52.604;13.318;2022-10-19T04:50:35;4.97;;;0.85;;
57233;SDS011;43090;52.604;13.318;2022-10-19T04:53:01;9.73;;;1.38;;
57233;SDS011;43090;52.604;13.318;2022-10-19T04:55:28;9.95;;;0.95;;
57233;SDS011;43090;52.604;13.318;2022-10-19T04:57:55;3.33;;;0.85;;
57233;SDS011;43090;52.604;13.318;2022-10-19T05:00:22;5.22;;;1.05;;
57233;SDS011;43090;52.604;13.318;2022-10-19T05:02:53;11.38;;;1.10;;
57233;SDS011;43090;52.604;13.318;2022-10-19T05:05:19;10.18;;;1.40;;
57233;SDS011;43090;52.604;13.318;2022-10-19T05:07:49;9.10;;;0.90;;
57233;SDS011;43090;52.604;13.318;2022-10-19T05:12:46;6.68;;;1.17;;
57233;SDS011;43090;52.604;13.318;2022-10-19T05:15:13;5.13;;;0.90;;
57233;SDS011;43090;52.604;13.318;2022-10-19T05:42:05;7.25;;;1.00;;
57233;SDS011;43090;52.604;13.318;2022-10-19T05:44:32;7.82;;;1.08;;
57233;SDS011;43090;52.604;13.318;2022-10-19T05:46:59;6.28;;;1.00;;
57233;SDS011;43090;52.604;13.318;2022-10-19T05:49:29;6.65;;;1.60;;
57233;SDS011;43090;52.604;13.318;2022-10-19T05:51:58;8.18;;;1.25;;
57233;SDS011;43090;52.604;13.318;2022-10-19T05:54:45;8.80;;;1.85;;
57233;SDS011;43090;52.604;13.318;2022-10-19T05:57:39;3.83;;;0.90;;
57233;SDS011;43090;52.604;13.318;2022-10-19T06:00:29;10.93;;;0.95;;
57233;SDS011;43090;52.604;13.318;2022-10-19T06:03:04;8.27;;;1.10;;
57233;SDS011;43090;52.604;13.318;2022-10-19T06:10:25;5.32;;;1.13;;
57233;SDS011;43090;52.604;13.318;2022-10-19T06:17:37;8.63;;;1.15;;
57233;SDS011;43090;52.604;13.318;2022-10-19T06:22:48;4.35;;;1.08;;
57233;SDS011;43090;52.604;13.318;2022-10-19T06:25:26;4.93;;;1.08;;
57233;SDS011;43090;52.604;13.318;2022-10-19T06:28:00;5.00;;;1.15;;
57233;SDS011;43090;52.604;13.318;2022-10-19T06:34:32;10.25;;;1.00;;
57233;SDS011;43090;52.604;13.318;2022-10-19T06:37:32;6.78;;;1.00;;
57233;SDS011;43090;52.604;13.318;2022-10-19T06:48:35;4.20;;;0.82;;
57233;SDS011;43090;52.604;13.318;2022-10-19T06:59:16;10.73;;;1.20;;
57233;SDS011;43090;52.604;13.318;2022-10-19T07:10:33;4.78;;;1.00;;
57233;SDS011;43090;52.604;13.318;2022-10-19T07:54:40;8.75;;;1.05;;
57233;SDS011;43090;52.604;13.318;2022-10-19T21:32:04;9.82;;;4.78;;
57233;SDS011;43090;52.604;13.318;2022-10-19T21:46:32;8.05;;;4.70;;
57233;SDS011;43090;52.604;13.318;2022-10-19T21:53:50;12.15;;;4.18;;
57233;SDS011;43090;52.604;13.318;2022-10-19T22:04:54;8.32;;;3.55;;
57233;SDS011;43090;52.604;13.318;2022-10-19T22:08:14;7.80;;;2.72;;
57233;SDS011;43090;52.604;13.318;2022-10-19T22:15:07;6.03;;;3.45;;
57233;SDS011;43090;52.604;13.318;2022-10-19T22:17:42;9.70;;;3.03;;
57233;SDS011;43090;52.604;13.318;2022-10-19T22:20:19;5.78;;;2.80;;
57233;SDS011;43090;52.604;13.318;2022-10-19T22:22:46;5.00;;;2.63;;
57233;SDS011;43090;52.604;13.318;2022-10-19T22:25:26;4.28;;;2.33;;
57233;SDS011;43090;52.604;13.318;2022-10-19T22:28:08;5.20;;;2.97;;
57233;SDS011;43090;52.604;13.318;2022-10-19T22:30:36;13.75;;;3.25;;
57233;SDS011;43090;52.604;13.318;2022-10-19T22:33:03;5.38;;;2.40;;
57233;SDS011;43090;52.604;13.318;2022-10-19T22:35:38;5.18;;;2.60;;
57233;SDS011;43090;52.604;13.318;2022-10-19T22:38:27;4.68;;;2.80;;
57233;SDS011;43090;52.604;13.318;2022-10-19T23:13:04;15.18;;;2.33;;
57233;SDS011;43090;52.604;13.318;2022-10-19T23:15:56;5.90;;;2.95;;
57233;SDS011;43090;52.604;13.318;2022-10-19T23:18:34;4.78;;;2.17;;
57233;SDS011;43090;52.604;13.318;2022-10-19T23:29:26;7.15;;;2.75;;
57233;SDS011;43090;52.604;13.318;2022-10-19T23:32:25;4.63;;;1.95;;
57233;SDS011;43090;52.604;13.318;2022-10-19T23:39:55;10.73;;;3.33;;
57233;SDS011;43090;52.604;13.318;2022-10-19T23:51:07;7.38;;;3.10;;
